Latest Weather Observations for Bombala AWS

IDN60801

Issued at 9:35 pm EDT Wednesday 26 November 2014 (issued every 30 minutes, with the page automatically refreshed every 10 minutes)

About weather observations | Map of weather stations | Latest weather observations for NSW | Other Formats
Station Details ID: 070328 Name: BOMBALA AWS Lat: -37.00 Lon: 149.23 Height: 760.5 m
Data from the previous 72 hours. | See also: Recent months at Bombala AWS
Date/Time
EDT
Temp
°C
App
Temp
°C
Dew
Point
Rel
Hum
%
Delta-T
°C
Wind Press
QNH
hPa
Press
MSL
hPa
Rain
since 9 am
mm
Dir
 
Spd
km/h
Gust
km/h
Spd
kts
Gust
kts
26/09:30pm 11.0 10.1 10.8 99 0.1 SE 6 7 3 4 1022.6 1021.0 0.2
26/09:00pm 11.2 9.8 11.0 99 0.1 SSE 9 9 5 5 1022.1 1020.6 0.0
26/08:30pm 11.4 10.9 10.9 97 0.3 SE 4 6 2 3 1021.8 1020.3 0.0
26/08:00pm 11.8 9.9 10.5 92 0.7 SSE 11 15 6 8 1021.6 1020.1 0.0
26/07:30pm 12.1 9.8 10.3 89 1.0 SSE 13 17 7 9 1021.4 1019.8 0.0
26/07:00pm 12.8 9.1 10.2 84 1.4 SSE 20 24 11 13 1020.5 1019.0 0.0
26/06:30pm 13.4 9.8 10.0 80 1.8 SE 19 26 10 14 1020.1 1018.5 0.0
26/06:00pm 14.3 10.0 10.7 79 2.0 SE 24 32 13 17 1019.8 1018.2 0.0
26/05:30pm 15.1 11.6 10.9 76 2.3 SE 20 26 11 14 1019.3 1017.8 0.0
26/05:00pm 15.6 12.2 11.4 76 2.3 SE 20 28 11 15 1019.1 1017.5 0.0
26/04:30pm 17.6 14.9 11.6 68 3.4 SSE 17 24 9 13 1019.0 1017.4 0.0
26/04:00pm 18.9 15.8 8.8 52 5.5 SSW 15 20 8 11 1019.0 1017.4 0.0
26/03:30pm 17.6 13.5 10.2 62 4.1 S 22 28 12 15 1018.9 1017.3 0.0
26/03:00pm 18.9 16.6 10.5 58 4.7 SSE 13 20 7 11 1018.7 1017.1 0.0
26/02:30pm 20.2 17.7 11.1 56 5.2 S 15 22 8 12 1018.8 1017.2 0.0
26/02:00pm 20.1 17.7 6.8 42 7.0 SSW 9 19 5 10 1018.9 1017.3 0.0
26/01:30pm 19.9 16.8 7.3 44 6.7 SW 13 19 7 10 1019.1 1017.5 0.0
26/01:00pm 19.5 17.6 6.9 44 6.6 WNW 6 17 3 9 1019.1 1017.5 0.0
26/12:30pm 17.7 15.7 6.3 47 5.8 S 6 15 3 8 1019.3 1017.8 0.0
26/12:00pm 18.7 16.9 8.1 50 5.6 S 7 15 4 8 1019.4 1017.9 0.0
26/11:30am 17.5 14.3 7.0 50 5.5 SW 13 24 7 13 1019.6 1018.0 0.0
26/11:00am 16.5 13.1 7.7 56 4.6 W 15 22 8 12 1019.7 1018.1 0.0
26/10:30am 16.0 13.1 6.4 53 4.9 W 11 19 6 10 1019.7 1018.1 0.0
26/10:00am 15.5 13.3 9.4 67 3.3 N 11 19 6 10 1019.9 1018.3 0.0
26/09:30am 14.1 12.0 9.7 75 2.4 NNW 11 17 6 9 1020.1 1018.5 0.0
26/09:00am 13.1 10.6 9.7 80 1.8 NW 13 17 7 9 1020.4 1018.9 0.2
26/08:30am 11.7 10.2 10.4 92 0.7 NNW 9 13 5 7 1020.4 1018.9 0.2
26/08:00am 10.3 8.3 10.1 99 0.1 NNW 11 13 6 7 1020.2 1018.6 0.2
26/07:30am 9.3 7.4 9.2 99 0.1 NW 9 13 5 7 1020.1 1018.5 0.2
26/07:00am 8.6 7.1 8.6 100 0.0 NNW 6 7 3 4 1019.9 1018.3 0.2
26/06:30am 7.6 5.9 7.6 100 0.0 NW 6 7 3 4 1019.9 1018.3 0.2
26/06:00am 6.7 4.2 6.7 100 0.0 NNW 9 11 5 6 1019.8 1018.2 0.2
26/05:30am 7.0 4.6 7.0 100 0.0 N 9 9 5 5 1019.6 1018.0 0.2
26/05:00am 7.6 5.9 7.5 99 0.0 NNW 6 9 3 5 1019.4 1017.9 0.2
26/04:30am 8.7 7.7 8.7 100 0.0 SSE 4 6 2 3 1019.4 1017.9 0.2
26/04:00am 8.7 8.4 8.7 100 0.0 CALM 0 0 0 0 1019.3 1017.8 0.2
26/03:30am 8.9 8.7 8.9 100 0.0 CALM 0 0 0 0 1019.4 1017.9 0.2
26/03:00am 9.1 8.9 9.1 100 0.0 CALM 0 0 0 0 1019.8 1018.2 0.2
26/02:30am 9.0 8.8 8.9 99 0.1 CALM 0 0 0 0 1019.9 1018.3 0.2
26/02:00am 9.2 8.6 9.1 99 0.1 SSE 2 4 1 2 1020.0 1018.4 0.2
26/01:30am 9.1 8.5 9.0 99 0.1 SE 2 6 1 3 1020.4 1018.9 0.2
26/01:00am 9.1 7.6 9.0 99 0.1 SSE 7 11 4 6 1020.6 1019.1 0.2
26/12:30am 9.0 6.7 8.9 99 0.1 SE 11 13 6 7 1021.0 1019.4 0.2
26/12:00am 9.4 7.6 9.3 99 0.1 SE 9 13 5 7 1021.1 1019.5 0.2
 
Date/Time
EDT
Temp
°C
App
Temp
°C
Dew
Point
Rel
Hum
%
Delta-T
°C
Wind Press
QNH
hPa
Press
MSL
hPa
Rain
since 9 am
mm
Dir
 
Spd
km/h
Gust
km/h
Spd
kts
Gust
kts
25/11:30pm 10.1 8.0 9.6 97 0.3 SE 11 15 6 8 1021.2 1019.6 0.2
25/11:00pm 10.4 9.2 9.5 94 0.5 SSE 6 11 3 6 1021.2 1019.6 0.2
25/10:30pm 10.4 8.6 9.5 94 0.5 SSE 9 13 5 7 1021.0 1019.4 0.2
25/10:00pm 10.7 9.2 9.3 91 0.7 SE 7 11 4 6 1021.0 1019.4 0.2
25/09:30pm 11.0 8.7 9.1 88 1.0 SSE 11 13 6 7 1020.5 1019.0 0.2
25/09:00pm 11.3 9.0 9.0 86 1.2 SE 11 15 6 8 1020.1 1018.5 0.2
25/08:30pm 11.5 9.2 9.1 85 1.3 SE 11 17 6 9 1019.8 1018.2 0.2
25/08:00pm 11.5 9.7 9.6 88 1.0 ESE 9 15 5 8 1019.6 1018.0 0.2
25/07:30pm 12.7 9.4 9.5 81 1.7 SE 17 20 9 11 1018.9 1017.3 0.2
25/07:00pm 14.2 11.2 9.2 72 2.7 ESE 15 20 8 11 1018.2 1016.6 0.2
25/06:30pm 15.7 12.6 8.7 63 3.7 SE 15 22 8 12 1017.4 1015.8 0.2
25/06:00pm 18.0 14.5 5.6 44 6.3 SSW 13 19 7 10 1017.1 1015.5 0.2
25/05:30pm 18.8 15.0 6.0 43 6.6 SW 15 19 8 10 1016.9 1015.2 0.2
25/05:00pm 19.0 15.0 6.8 45 6.4 SW 17 20 9 11 1016.6 1015.0 0.2
25/04:30pm 19.5 16.1 5.9 41 7.0 SW 13 24 7 13 1016.6 1015.0 0.2
25/04:00pm 18.8 13.8 4.6 39 7.1 SW 20 32 11 17 1016.5 1014.9 0.2
25/03:30pm 18.9 13.9 4.7 39 7.1 W 20 35 11 19 1016.5 1014.9 0.2
25/03:00pm 18.4 13.7 5.3 42 6.6 WSW 19 28 10 15 1016.5 1014.9 0.2
25/02:30pm 18.4 13.3 3.1 36 7.4 W 19 26 10 14 1016.3 1014.7 0.2
25/02:00pm 17.5 12.0 4.1 41 6.6 W 22 33 12 18 1016.6 1015.0 0.2
25/01:30pm 17.1 11.0 2.7 38 6.8 W 24 35 13 19 1016.6 1015.0 0.2
25/01:00pm 16.6 8.5 3.3 41 6.4 WSW 35 46 19 25 1016.6 1015.0 0.2
25/12:45pm 16.6 9.7 2.6 39 6.6 WSW 28 46 15 25 1016.5 1014.9 0.2
25/12:30pm 16.6 10.8 4.6 45 5.9 W 24 35 13 19 1016.8 1015.1 0.2
25/12:00pm 15.5 9.1 3.3 44 5.8 W 26 41 14 22 1016.8 1015.1 0.2
25/11:30am 15.0 8.8 4.1 48 5.2 W 26 39 14 21 1016.6 1015.0 0.2
25/11:00am 14.5 7.8 3.9 49 5.1 W 28 35 15 19 1016.2 1014.6 0.0
25/10:30am 13.9 8.0 3.7 50 4.8 W 24 32 13 17 1015.8 1014.2 0.0
25/10:00am 13.6 8.2 4.5 54 4.4 WSW 22 33 12 18 1015.6 1013.9 0.0
25/09:30am 12.5 6.2 3.5 54 4.2 WSW 26 35 14 19 1015.4 1013.7 0.0
25/09:00am 11.9 7.0 4.9 62 3.3 WSW 20 30 11 16 1015.1 1013.5 12.2
25/08:30am 10.9 4.8 5.0 67 2.8 WSW 26 37 14 20 1014.9 1013.3 12.2
25/08:00am 9.6 2.6 4.2 69 2.5 WSW 30 39 16 21 1014.6 1012.9 12.2
25/07:30am 8.8 2.4 5.0 77 1.8 WSW 28 37 15 20 1014.4 1012.7 12.2
25/07:00am 8.1 1.6 4.9 80 1.5 SW 28 33 15 18 1013.6 1012.0 12.2
25/06:30am 7.2 0.7 4.9 85 1.1 SW 28 39 15 21 1013.1 1011.4 12.2
25/06:00am 7.5 0.4 5.5 87 0.9 SW 32 43 17 23 1012.3 1010.7 12.2
25/05:30am 7.6 3.1 6.9 95 0.3 SW 20 28 11 15 1011.7 1010.0 12.2
25/05:00am 7.5 2.6 6.8 95 0.3 SW 22 32 12 17 1011.0 1009.3 12.2
25/04:30am 7.8 4.9 6.7 93 0.5 SSW 11 20 6 11 1010.9 1009.2 12.2
25/04:00am 8.1 3.8 6.9 92 0.6 SW 19 30 10 16 1010.5 1008.8 12.2
25/03:30am 8.8 4.4 7.6 92 0.6 SW 20 28 11 15 1010.5 1008.8 12.2
25/03:00am 9.4 2.9 8.0 91 0.7 SW 32 43 17 23 1010.1 1008.4 12.2
25/02:38am 11.0 5.4 10.2 95 0.4 SW 30 39 16 21 1009.9 1008.1 12.2
25/02:30am 11.5 10.7 11.2 98 0.2 S 6 13 3 7 1009.9 1008.1 12.2
25/02:00am 11.5 8.1 11.3 99 0.1 SW 20 30 11 16 1009.6 1007.9 12.2
25/01:30am 11.5 7.0 11.3 99 0.1 SW 26 33 14 18 1009.5 1007.8 12.2
25/01:00am 12.2 7.1 12.0 99 0.1 WSW 30 43 16 23 1009.9 1008.1 12.2
25/12:30am 14.1 11.7 13.9 99 0.1 SW 19 28 10 15 1009.5 1007.8 12.2
25/12:00am 14.4 12.6 14.4 100 0.0 WSW 17 28 9 15 1009.2 1007.5 12.2
 
Date/Time
EDT
Temp
°C
App
Temp
°C
Dew
Point
Rel
Hum
%
Delta-T
°C
Wind Press
QNH
hPa
Press
MSL
hPa
Rain
since 9 am
mm
Dir
 
Spd
km/h
Gust
km/h
Spd
kts
Gust
kts
24/11:30pm 14.4 14.1 14.4 100 0.0 NNE 9 19 5 10 1007.7 1006.0 12.2
24/11:22pm 14.4 11.6 14.4 100 0.0 NNE 22 30 12 16 1007.4 1005.6 12.2
24/11:00pm 14.4 14.1 14.4 100 0.0 NNW 9 15 5 8 1009.9 1008.1 11.8
24/10:30pm 14.6 12.5 14.6 100 0.0 NNW 19 26 10 14 1011.0 1009.3 11.4
24/10:00pm 14.7 12.4 14.7 100 0.0 NNW 20 24 11 13 1011.3 1009.6 8.6
24/09:30pm 15.2 13.6 15.0 99 0.1 NNW 17 24 9 13 1010.4 1008.7 6.8
24/09:00pm 15.7 13.7 15.5 99 0.1 NNW 20 26 11 14 1009.9 1008.1 5.8
24/08:30pm 16.4 14.7 16.2 99 0.1 NNW 20 24 11 13 1009.4 1007.7 5.8
24/08:00pm 16.4 15.6 16.2 99 0.1 WNW 15 20 8 11 1009.9 1008.1 5.8
24/07:30pm 18.4 18.8 18.2 99 0.1 WNW 13 17 7 9 1010.3 1008.6 4.2
24/07:00pm 18.6 19.9 18.4 99 0.1 NNW 9 11 5 6 1009.6 1007.9 4.2
24/06:30pm 18.7 19.4 17.9 95 0.5 N 11 17 6 9 1009.1 1007.4 4.2
24/06:00pm 18.9 19.3 18.2 96 0.4 N 13 17 7 9 1008.8 1007.0 4.2
24/05:30pm 19.1 20.2 18.9 99 0.1 NNW 11 15 6 8 1009.4 1007.7 4.2
24/05:00pm 18.4 18.4 18.2 99 0.1 NNW 15 20 8 11 1009.4 1007.7 4.2
24/04:30pm 18.1 18.1 18.1 100 0.0 N 15 20 8 11 1009.8 1008.0 4.2
24/04:00pm 17.9 17.8 17.9 100 0.0 N 15 20 8 11 1010.2 1008.5 3.8
24/03:30pm 18.1 19.2 18.1 100 0.0 N 9 15 5 8 1011.3 1009.6 3.2
24/03:00pm 17.9 19.0 17.9 100 0.0 N 9 13 5 7 1012.2 1010.5 3.0
24/02:30pm 17.8 19.1 17.6 99 0.1 NNW 7 13 4 7 1012.7 1011.0 2.2
24/02:00pm 17.6 18.3 17.0 96 0.4 N 9 13 5 7 1012.6 1010.9 1.8
24/01:30pm 18.4 19.0 16.7 90 1.1 N 9 15 5 8 1012.4 1010.8 1.0
24/01:00pm 18.9 18.7 15.8 82 1.9 N 11 19 6 10 1012.1 1010.4 0.4
24/12:30pm 20.5 20.1 15.1 71 3.3 WNW 11 17 6 9 1012.0 1010.3 0.2
24/12:00pm 21.8 19.6 14.4 63 4.5 NW 19 22 10 12 1012.3 1010.7 0.2
24/11:30am 22.3 20.9 14.4 61 4.8 NNW 15 20 8 11 1012.8 1011.1 0.2
24/11:00am 22.1 19.7 14.5 62 4.6 NNW 20 28 11 15 1013.2 1011.5 0.2
24/10:30am 22.2 19.6 14.8 63 4.5 NNW 22 30 12 16 1013.6 1012.0 0.2
24/10:00am 22.0 20.4 16.1 69 3.7 NNW 19 26 10 14 1013.6 1012.0 0.2
24/09:30am 21.3 20.0 15.8 71 3.4 NNW 17 24 9 13 1013.8 1012.2 0.2
24/09:00am 19.7 19.3 16.3 81 2.1 NW 13 17 7 9 1014.0 1012.3 0.6
24/08:30am 18.8 18.1 16.4 86 1.5 NNW 15 17 8 9 1014.6 1012.9 0.6
24/08:00am 18.5 17.5 15.6 83 1.8 NNW 15 19 8 10 1014.5 1012.8 0.6
24/07:30am 17.0 17.8 16.4 96 0.4 NNW 7 11 4 6 1014.5 1012.8 0.6
24/07:00am 15.4 15.6 14.8 96 0.4 NW 7 9 4 5 1014.4 1012.7 0.6
24/06:30am 14.1 14.0 13.3 95 0.5 NW 6 7 3 4 1014.9 1013.3 0.6
24/06:00am 13.4 13.1 13.2 99 0.1 N 7 9 4 5 1014.8 1013.2 0.6
24/05:30am 13.8 13.6 13.6 99 0.1 NW 7 9 4 5 1014.8 1013.2 0.6
24/05:00am 13.9 13.7 13.7 99 0.1 NW 7 9 4 5 1015.0 1013.4 0.6
24/04:30am 13.3 13.2 13.3 100 0.0 NNW 6 9 3 5 1015.6 1013.9 0.6
24/04:00am 12.9 12.4 12.7 99 0.1 N 7 13 4 7 1015.8 1014.2 0.4
24/03:30am 13.2 12.7 12.7 97 0.3 WNW 7 13 4 7 1015.8 1014.2 0.0
24/03:00am 13.0 13.1 12.8 99 0.1 NW 4 7 2 4 1015.5 1013.8 0.0
24/02:30am 13.0 13.1 12.8 99 0.1 NNW 4 7 2 4 1015.9 1014.3 0.0
24/02:00am 12.9 12.6 12.7 99 0.1 NW 6 13 3 7 1016.1 1014.5 0.0
24/01:30am 12.2 11.7 12.0 99 0.1 N 6 7 3 4 1016.0 1014.4 0.0
24/01:00am 11.9 11.1 11.7 99 0.1 N 7 9 4 5 1016.9 1015.2 0.0
24/12:30am 11.9 11.7 11.7 99 0.1 SSW 4 6 2 3 1017.2 1015.6 0.0
24/12:00am 11.9 11.3 11.7 99 0.1 SSW 6 7 3 4 1017.0 1015.4 0.0
 
Date/Time
EDT
Temp
°C
App
Temp
°C
Dew
Point
Rel
Hum
%
Delta-T
°C
Wind Press
QNH
hPa
Press
MSL
hPa
Rain
since 9 am
mm
Dir
 
Spd
km/h
Gust
km/h
Spd
kts
Gust
kts
23/11:30pm 12.1 11.5 11.6 97 0.3 SSE 6 7 3 4 1016.9 1015.2 0.0
23/11:00pm 12.5 10.9 11.7 95 0.4 SSE 11 15 6 8 1017.0 1015.4 0.0
23/10:30pm 13.6 11.4 12.2 91 0.8 SSE 15 20 8 11 1017.0 1015.4 0.0
23/10:00pm 14.4 12.2 12.1 86 1.3 SSE 15 19 8 10 1017.0 1015.4 0.0

Other Formats:

Comma delimited format used in spreadsheet applications
http://www.bom.gov.au/fwo/IDN60801/IDN60801.94929.axf

JavaScript Object Notation format (JSON) in row-major order
http://www.bom.gov.au/fwo/IDN60801/IDN60801.94929.json